createdAt,value
2018-03-23T00:02:02.641Z,4.51
2018-03-23T00:04:30.376Z,4.64
2018-03-23T00:06:57.980Z,4.69
2018-03-23T00:09:25.713Z,4.65
2018-03-23T00:11:53.850Z,4.66
2018-03-23T00:14:21.628Z,4.69
2018-03-23T00:16:49.406Z,4.71
2018-03-23T00:19:17.288Z,4.59
2018-03-23T00:21:44.962Z,4.96
2018-03-23T00:24:12.682Z,4.88
2018-03-23T00:26:40.827Z,4.87
2018-03-23T00:29:08.568Z,4.77
2018-03-23T00:31:36.274Z,4.88
2018-03-23T00:34:04.055Z,4.86
2018-03-23T00:36:31.834Z,4.96
2018-03-23T00:38:59.615Z,4.83
2018-03-23T00:41:27.478Z,4.87
2018-03-23T00:43:55.271Z,4.90
2018-03-23T00:46:23.032Z,4.73
2018-03-23T00:48:50.775Z,4.85
2018-03-23T00:51:18.501Z,4.72
2018-03-23T00:53:46.284Z,4.80
2018-03-23T00:56:14.163Z,4.76
2018-03-23T00:58:41.858Z,4.74
2018-03-23T01:01:09.721Z,4.72
2018-03-23T01:03:37.596Z,4.85
2018-03-23T01:06:05.271Z,4.86
2018-03-23T01:08:33.051Z,4.64
2018-03-23T01:11:00.727Z,4.75
2018-03-23T01:13:28.402Z,4.84
2018-03-23T01:15:56.231Z,4.72
2018-03-23T01:18:23.846Z,4.87
2018-03-23T01:20:51.528Z,4.82
2018-03-23T01:23:19.254Z,4.83
2018-03-23T01:25:47.093Z,4.89
2018-03-23T01:28:14.812Z,4.74
2018-03-23T01:30:42.644Z,4.56
2018-03-23T01:33:10.381Z,4.63
2018-03-23T01:35:38.197Z,4.73
2018-03-23T01:38:05.973Z,4.81
2018-03-23T01:40:33.694Z,4.83
2018-03-23T01:43:01.325Z,4.81
2018-03-23T01:45:29.105Z,4.82
2018-03-23T01:47:56.843Z,4.67
2018-03-23T01:50:24.559Z,4.81
2018-03-23T01:52:52.437Z,4.79
2018-03-23T01:55:20.034Z,4.87
2018-03-23T01:57:47.740Z,4.79
2018-03-23T02:00:15.875Z,4.84
2018-03-23T02:02:43.650Z,4.95
2018-03-23T02:05:11.429Z,4.85
2018-03-23T02:07:39.097Z,4.85
2018-03-23T02:10:06.884Z,4.84
2018-03-23T02:12:34.508Z,4.86
2018-03-23T02:15:02.300Z,4.82
2018-03-23T02:17:30.115Z,4.85
2018-03-23T02:19:57.895Z,4.89
2018-03-23T02:22:25.780Z,4.78
2018-03-23T02:24:53.620Z,4.95
2018-03-23T02:27:21.429Z,4.84
2018-03-23T02:29:49.312Z,4.86
2018-03-23T02:32:17.190Z,4.77
2018-03-23T02:34:44.969Z,4.82
2018-03-23T02:37:12.852Z,4.77
2018-03-23T02:39:40.522Z,4.87
2018-03-23T02:42:08.302Z,4.89
2018-03-23T02:44:36.154Z,4.99
2018-03-23T02:47:03.964Z,4.99
2018-03-23T02:49:31.629Z,4.98
2018-03-23T02:51:59.421Z,4.97
2018-03-23T02:54:27.143Z,4.95
2018-03-23T02:56:54.968Z,4.97
2018-03-23T02:59:22.646Z,5.13
2018-03-23T03:01:50.416Z,5.07
2018-03-23T03:04:18.117Z,4.94
2018-03-23T03:06:45.831Z,4.89
2018-03-23T03:09:13.654Z,4.90
2018-03-23T03:11:41.945Z,4.95
2018-03-23T03:14:09.675Z,5.00
2018-03-23T03:16:37.503Z,4.95
2018-03-23T03:19:05.276Z,4.94
2018-03-23T03:21:32.949Z,4.93
2018-03-23T03:24:00.730Z,4.84
2018-03-23T03:26:28.459Z,4.80
2018-03-23T03:28:56.075Z,4.80
2018-03-23T03:31:23.963Z,4.90
2018-03-23T03:33:51.634Z,4.86
2018-03-23T03:36:19.423Z,4.86
2018-03-23T03:38:47.140Z,4.83
2018-03-23T03:41:14.870Z,4.88
2018-03-23T03:43:42.752Z,4.89
2018-03-23T03:46:10.527Z,4.98
2018-03-23T03:48:38.305Z,5.01
2018-03-23T03:51:06.090Z,4.94
2018-03-23T03:53:33.747Z,5.03
2018-03-23T03:56:01.641Z,5.19
2018-03-23T03:58:29.311Z,5.12
2018-03-23T04:00:57.093Z,5.04
2018-03-23T04:03:24.869Z,4.95
2018-03-23T04:05:52.796Z,5.06
2018-03-23T04:08:20.528Z,4.97
2018-03-23T04:10:48.306Z,5.00
2018-03-23T04:13:16.082Z,5.14
2018-03-23T04:15:43.967Z,5.03
2018-03-23T04:18:11.745Z,4.99
2018-03-23T04:20:39.423Z,5.00
2018-03-23T04:23:07.138Z,5.05
2018-03-23T04:25:34.761Z,5.03
2018-03-23T04:28:02.897Z,5.22
2018-03-23T04:30:30.513Z,5.08
2018-03-23T04:32:58.305Z,4.98
2018-03-23T04:35:25.978Z,5.06
2018-03-23T04:37:53.656Z,5.07
2018-03-23T04:40:21.506Z,5.07
2018-03-23T04:42:49.314Z,5.09
2018-03-23T04:45:17.206Z,5.06
2018-03-23T04:47:44.930Z,5.09
2018-03-23T04:50:12.648Z,5.10
2018-03-23T04:52:40.837Z,5.08
2018-03-23T04:55:08.649Z,5.00
2018-03-23T04:57:36.496Z,5.18
2018-03-23T05:00:04.682Z,5.04
2018-03-23T05:02:32.455Z,4.95
2018-03-23T05:05:00.238Z,5.14
2018-03-23T05:07:28.120Z,5.14
2018-03-23T05:09:55.892Z,5.09
2018-03-23T05:12:23.575Z,5.14
2018-03-23T05:14:51.230Z,5.04
2018-03-23T05:17:18.980Z,5.18
2018-03-23T05:19:47.109Z,5.36
2018-03-23T05:22:14.873Z,5.25
2018-03-23T05:24:42.568Z,5.34
2018-03-23T05:27:10.336Z,5.26
2018-03-23T05:29:38.088Z,5.25
2018-03-23T05:32:05.784Z,5.11
2018-03-23T05:34:33.572Z,5.22
2018-03-23T05:37:01.661Z,5.25
2018-03-23T05:39:29.449Z,5.25
2018-03-23T05:41:57.215Z,5.12
2018-03-23T05:44:25.092Z,5.09
2018-03-23T05:46:52.830Z,5.18
2018-03-23T05:49:22.388Z,5.23
2018-03-23T05:51:50.528Z,5.35
2018-03-23T05:54:19.275Z,5.13
2018-03-23T05:56:47.052Z,5.29
2018-03-23T05:59:14.831Z,5.36
2018-03-23T06:01:42.512Z,5.29
2018-03-23T06:04:10.285Z,5.24
2018-03-23T06:06:37.965Z,5.21
2018-03-23T06:09:05.727Z,5.35
2018-03-23T06:11:33.517Z,5.30
2018-03-23T06:14:01.287Z,5.42
2018-03-23T06:16:29.175Z,5.26
2018-03-23T06:18:56.919Z,5.34
2018-03-23T06:21:24.686Z,5.38
2018-03-23T06:23:52.396Z,5.45
2018-03-23T06:26:20.143Z,5.38
2018-03-23T06:28:47.963Z,5.59
2018-03-23T06:31:15.641Z,5.71
2018-03-23T06:33:43.310Z,5.50
2018-03-23T06:36:11.194Z,5.64
2018-03-23T06:38:38.971Z,5.78
2018-03-23T06:41:06.751Z,5.55
2018-03-23T06:43:34.630Z,5.73
2018-03-23T06:46:02.409Z,5.73
2018-03-23T06:48:30.170Z,5.66
2018-03-23T06:50:57.964Z,5.77
2018-03-23T06:53:25.744Z,5.77
2018-03-23T06:55:53.469Z,5.92
2018-03-23T06:58:21.294Z,5.95
2018-03-23T07:00:48.970Z,5.94
2018-03-23T07:03:16.742Z,5.97
2018-03-23T07:05:44.630Z,6.05
2018-03-23T07:08:12.374Z,6.08
2018-03-23T07:10:40.188Z,6.08
2018-03-23T07:13:07.884Z,5.87
2018-03-23T07:15:35.652Z,6.07
2018-03-23T07:18:03.418Z,6.14
2018-03-23T07:20:31.195Z,6.18
2018-03-23T07:22:58.838Z,6.01
2018-03-23T07:25:26.530Z,5.99
2018-03-23T07:27:54.324Z,6.02
2018-03-23T07:30:21.997Z,6.06
2018-03-23T07:32:49.629Z,6.17
2018-03-23T07:35:17.760Z,6.36
2018-03-23T07:37:45.572Z,6.24
2018-03-23T07:40:13.418Z,6.43
2018-03-23T07:42:41.199Z,6.48
2018-03-23T07:45:08.871Z,6.18
2018-03-23T07:47:36.751Z,6.05
2018-03-23T07:50:04.428Z,6.26
2018-03-23T07:52:32.173Z,6.31
2018-03-23T07:54:59.984Z,6.20
2018-03-23T07:57:27.760Z,6.27
2018-03-23T07:59:55.501Z,6.36
2018-03-23T08:02:23.314Z,6.32
2018-03-23T08:04:51.093Z,6.37
2018-03-23T08:07:18.759Z,6.55
2018-03-23T08:09:46.436Z,6.15
2018-03-23T08:12:14.331Z,6.02
2018-03-23T08:14:41.992Z,6.22
2018-03-23T08:17:09.777Z,6.19
2018-03-23T08:19:37.448Z,6.21
2018-03-23T08:22:05.332Z,6.15
2018-03-23T08:24:33.005Z,6.50
2018-03-23T08:27:00.758Z,6.03
2018-03-23T08:29:28.524Z,6.17
2018-03-23T08:31:56.343Z,6.07
2018-03-23T08:34:24.121Z,5.99
2018-03-23T08:36:51.897Z,6.24
2018-03-23T08:39:19.678Z,6.35
2018-03-23T08:41:47.664Z,6.52
2018-03-23T08:44:15.588Z,6.81
2018-03-23T08:46:43.214Z,7.21
2018-03-23T08:49:10.994Z,7.31
2018-03-23T08:51:38.667Z,6.89
2018-03-23T08:54:06.385Z,7.64
2018-03-23T08:56:34.226Z,8.13
2018-03-23T08:59:01.973Z,7.90
2018-03-23T09:01:29.782Z,7.67
2018-03-23T09:03:57.458Z,7.48
2018-03-23T09:06:25.128Z,7.34
2018-03-23T09:08:52.909Z,7.40
2018-03-23T09:11:21.098Z,8.03
2018-03-23T09:13:48.822Z,8.19
2018-03-23T09:16:16.654Z,8.14
2018-03-23T09:18:44.533Z,8.15
2018-03-23T09:21:12.206Z,8.44
2018-03-23T09:23:39.938Z,7.94
2018-03-23T09:26:07.767Z,8.05
2018-03-23T09:28:35.444Z,8.58
2018-03-23T09:31:03.322Z,7.69
2018-03-23T09:33:31.059Z,7.99
2018-03-23T09:35:58.821Z,8.42
2018-03-23T09:38:26.656Z,8.64
2018-03-23T09:40:54.382Z,9.01
2018-03-23T09:43:22.209Z,8.37
2018-03-23T09:45:49.986Z,8.04
2018-03-23T09:48:17.765Z,8.31
2018-03-23T09:50:45.444Z,8.16
2018-03-23T09:53:13.115Z,8.89
2018-03-23T09:55:41.305Z,8.49
2018-03-23T09:58:09.082Z,8.47
2018-03-23T10:00:36.873Z,8.04
2018-03-23T10:03:04.936Z,7.60
2018-03-23T10:05:32.782Z,7.30
2018-03-23T10:08:00.407Z,7.29
2018-03-23T10:10:28.075Z,6.85
2018-03-23T10:12:55.749Z,7.22
2018-03-23T10:15:23.495Z,7.40
2018-03-23T10:17:51.191Z,7.70
2018-03-23T10:20:18.979Z,8.07
2018-03-23T10:22:46.759Z,8.08
2018-03-23T10:25:14.479Z,8.12
2018-03-23T10:27:42.317Z,7.54
2018-03-23T10:30:10.199Z,7.91
2018-03-23T10:32:37.806Z,7.76
2018-03-23T10:35:05.539Z,7.88
2018-03-23T10:37:33.227Z,7.63
2018-03-23T10:40:00.899Z,7.70
2018-03-23T10:42:28.781Z,7.40
2018-03-23T10:44:56.451Z,7.64
2018-03-23T10:47:24.264Z,7.58
2018-03-23T10:49:52.069Z,7.30
2018-03-23T10:52:19.891Z,7.32
2018-03-23T10:54:48.485Z,7.60
2018-03-23T10:57:16.266Z,7.44
2018-03-23T10:59:44.083Z,6.92
2018-03-23T11:05:15.644Z,6.91
2018-03-23T11:07:43.424Z,6.73
2018-03-23T11:10:11.151Z,6.57
2018-03-23T11:12:38.870Z,6.67
2018-03-23T11:15:06.612Z,7.07
2018-03-23T11:17:34.324Z,7.04
2018-03-23T11:20:02.169Z,7.29
2018-03-23T11:22:29.884Z,7.55
2018-03-23T11:24:57.558Z,7.48
2018-03-23T11:27:25.332Z,7.30
2018-03-23T11:29:53.123Z,7.73
2018-03-23T11:32:20.855Z,8.09
2018-03-23T11:34:48.775Z,7.86
2018-03-23T11:37:16.551Z,7.80
2018-03-23T11:39:44.328Z,7.72
2018-03-23T11:42:12.107Z,7.78
2018-03-23T11:44:40.296Z,7.63
2018-03-23T11:47:07.958Z,7.67
2018-03-23T11:49:35.717Z,7.57
2018-03-23T11:52:03.527Z,7.95
2018-03-23T11:54:31.304Z,7.63
2018-03-23T11:56:59.388Z,7.68
2018-03-23T11:59:27.171Z,7.69
2018-03-23T12:01:54.859Z,7.67
2018-03-23T12:04:22.617Z,8.01
2018-03-23T12:06:50.401Z,7.89
2018-03-23T12:09:18.178Z,7.46
2018-03-23T12:11:46.056Z,7.60
2018-03-23T12:14:13.820Z,7.47
2018-03-23T12:16:41.613Z,7.44
2018-03-23T12:19:09.278Z,6.94
2018-03-23T12:21:37.367Z,6.92
2018-03-23T12:24:05.153Z,7.47
2018-03-23T12:26:32.935Z,7.54
2018-03-23T12:29:00.614Z,7.11
2018-03-23T12:31:28.482Z,7.23
2018-03-23T12:33:56.214Z,7.41
2018-03-23T12:36:24.042Z,7.66
2018-03-23T12:38:51.923Z,7.37
2018-03-23T12:41:19.598Z,7.21
2018-03-23T12:43:47.371Z,7.50
2018-03-23T12:46:15.558Z,7.62
2018-03-23T12:48:43.228Z,7.62
2018-03-23T12:51:11.014Z,7.39
2018-03-23T12:53:38.894Z,7.71
2018-03-23T12:56:06.570Z,7.77
2018-03-23T12:58:34.347Z,7.26
2018-03-23T13:01:02.020Z,7.41
2018-03-23T13:03:29.803Z,7.57
2018-03-23T13:05:58.120Z,7.47
2018-03-23T13:08:25.868Z,7.63
2018-03-23T13:10:53.538Z,7.51
2018-03-23T13:13:21.425Z,7.26
2018-03-23T13:15:49.146Z,7.56
2018-03-23T13:18:16.759Z,7.46
2018-03-23T13:20:44.549Z,7.31
2018-03-23T13:23:12.214Z,7.02
2018-03-23T13:25:40.003Z,7.32
2018-03-23T13:28:07.781Z,7.42
2018-03-23T13:30:35.664Z,6.94
2018-03-23T13:33:03.417Z,7.18
2018-03-23T13:35:31.219Z,7.37
2018-03-23T13:37:58.999Z,7.29
2018-03-23T13:40:26.866Z,7.33
2018-03-23T13:42:54.539Z,7.26
2018-03-23T13:45:22.327Z,7.42
2018-03-23T13:47:50.106Z,7.57
2018-03-23T13:50:17.845Z,7.41
2018-03-23T13:52:45.663Z,7.65
2018-03-23T13:55:13.440Z,7.78
2018-03-23T13:57:41.217Z,7.32
2018-03-23T14:00:14.422Z,7.56
2018-03-23T14:02:42.204Z,7.38
2018-03-23T14:05:10.264Z,7.45
2018-03-23T14:07:37.975Z,7.44
2018-03-23T14:10:05.743Z,7.78
2018-03-23T14:12:33.415Z,7.81
2018-03-23T14:15:01.148Z,7.53
2018-03-23T14:17:28.971Z,7.39
2018-03-23T14:19:56.749Z,7.36
2018-03-23T14:22:24.474Z,7.59
2018-03-23T14:24:52.306Z,7.50
2018-03-23T14:27:20.083Z,7.45
2018-03-23T14:29:47.950Z,7.07
2018-03-23T14:32:15.688Z,7.28
2018-03-23T14:34:43.380Z,7.35
2018-03-23T14:37:11.084Z,7.31
2018-03-23T14:39:38.871Z,7.54
2018-03-23T14:42:06.648Z,7.52
2018-03-23T14:44:34.498Z,7.46
2018-03-23T14:47:02.127Z,7.36
2018-03-23T14:49:29.833Z,7.59
2018-03-23T14:51:57.552Z,7.85
2018-03-23T14:54:25.578Z,7.99
2018-03-23T14:56:53.416Z,7.72
2018-03-23T14:59:21.195Z,8.06
2018-03-23T15:01:49.384Z,7.77
2018-03-23T15:04:17.160Z,7.63
2018-03-23T15:06:44.897Z,7.65
2018-03-23T15:09:13.021Z,7.51
2018-03-23T15:11:40.802Z,7.65
2018-03-23T15:14:16.668Z,8.16
2018-03-23T15:16:44.374Z,8.09
2018-03-23T15:19:12.083Z,8.03
2018-03-23T15:21:39.869Z,7.83
2018-03-23T15:24:07.579Z,7.94
2018-03-23T15:26:35.240Z,8.02
2018-03-23T15:29:03.522Z,8.16
2018-03-23T15:31:31.234Z,8.53
2018-03-23T15:33:58.879Z,8.24
2018-03-23T15:36:27.080Z,8.16
2018-03-23T15:38:54.754Z,7.91
2018-03-23T15:41:22.556Z,8.02
2018-03-23T15:43:50.307Z,7.58
2018-03-23T15:46:18.197Z,7.63
2018-03-23T15:48:45.862Z,7.42
2018-03-23T15:51:13.743Z,7.41
2018-03-23T15:53:41.524Z,7.75
2018-03-23T15:56:09.301Z,7.61
2018-03-23T15:58:36.972Z,7.23
2018-03-23T16:01:04.812Z,7.24
2018-03-23T16:03:32.536Z,7.11
2018-03-23T16:06:00.646Z,7.01
2018-03-23T16:08:28.395Z,6.89
2018-03-23T16:10:56.127Z,7.13
2018-03-23T16:13:23.950Z,6.89
2018-03-23T16:15:51.729Z,6.90
2018-03-23T16:18:19.451Z,6.81
2018-03-23T16:20:47.184Z,7.00
2018-03-23T16:23:14.961Z,6.96
2018-03-23T16:25:42.736Z,6.80
2018-03-23T16:28:11.030Z,7.19
2018-03-23T16:30:38.810Z,7.31
2018-03-23T16:33:06.527Z,7.21
2018-03-23T16:35:34.571Z,7.42
2018-03-23T16:38:02.595Z,7.36
2018-03-23T16:40:30.328Z,6.93
2018-03-23T16:42:58.148Z,6.89
2018-03-23T16:45:25.884Z,7.04
2018-03-23T16:47:53.662Z,6.70
2018-03-23T16:50:21.397Z,6.94
2018-03-23T16:52:49.218Z,6.88
2018-03-23T16:55:17.003Z,6.67
2018-03-23T16:57:44.775Z,6.77
2018-03-23T17:00:12.586Z,6.78
2018-03-23T17:02:40.326Z,6.65
2018-03-23T17:05:08.108Z,6.51
2018-03-23T17:07:36.105Z,6.42
2018-03-23T17:10:04.052Z,6.60
2018-03-23T17:12:34.013Z,6.59
2018-03-23T17:15:03.910Z,6.61
2018-03-23T17:17:33.887Z,6.64
2018-03-23T17:20:01.743Z,6.58
2018-03-23T17:22:29.517Z,6.45
2018-03-23T17:24:57.294Z,6.50
2018-03-23T17:27:25.178Z,6.49
2018-03-23T17:29:52.959Z,6.53
2018-03-23T17:32:20.706Z,6.36
2018-03-23T17:34:48.515Z,6.37
2018-03-23T17:37:16.333Z,6.31
2018-03-23T17:39:44.066Z,6.36
2018-03-23T17:42:11.727Z,6.38
2018-03-23T17:44:39.507Z,6.25
2018-03-23T17:47:07.400Z,6.33
2018-03-23T17:49:35.177Z,6.31
2018-03-23T17:52:02.956Z,6.24
2018-03-23T17:54:30.833Z,6.25
2018-03-23T17:56:58.614Z,6.18
2018-03-23T17:59:27.449Z,6.08
2018-03-23T18:01:56.226Z,6.34
2018-03-23T18:04:26.764Z,6.34
2018-03-23T18:06:54.638Z,6.31
2018-03-23T18:09:22.319Z,6.36
2018-03-23T18:11:50.407Z,6.31
2018-03-23T18:14:18.180Z,6.20
2018-03-23T18:16:45.843Z,6.15
2018-03-23T18:19:14.452Z,6.07
2018-03-23T18:21:42.207Z,6.19
2018-03-23T18:24:09.905Z,6.18
2018-03-23T18:26:37.579Z,6.19
2018-03-23T18:29:05.230Z,6.12
2018-03-23T18:31:33.043Z,6.07
2018-03-23T18:34:00.740Z,6.12
2018-03-23T18:36:28.384Z,6.07
2018-03-23T18:38:56.270Z,6.22
2018-03-23T18:41:23.987Z,6.07
2018-03-23T18:43:51.619Z,5.97
2018-03-23T18:46:19.497Z,5.85
2018-03-23T18:48:47.276Z,5.96
2018-03-23T18:51:15.054Z,5.90
2018-03-23T18:53:42.833Z,5.97
2018-03-23T18:56:10.566Z,5.88
2018-03-23T18:58:38.229Z,5.88
2018-03-23T19:01:06.317Z,5.94
2018-03-23T19:03:34.116Z,5.85
2018-03-23T19:06:01.699Z,5.88
2018-03-23T19:08:29.808Z,5.99
2018-03-23T19:10:57.451Z,5.99
2018-03-23T19:13:25.142Z,5.82
2018-03-23T19:15:52.819Z,5.88
2018-03-23T19:18:20.493Z,5.86
2018-03-23T19:20:48.182Z,5.88
2018-03-23T19:23:15.963Z,5.93
2018-03-23T19:25:43.746Z,5.92
2018-03-23T19:28:13.482Z,5.79
2018-03-23T19:30:41.446Z,5.86
2018-03-23T19:33:09.189Z,5.77
2018-03-23T19:35:37.001Z,5.61
2018-03-23T19:38:04.782Z,5.61
2018-03-23T19:40:32.664Z,5.55
2018-03-23T19:43:00.444Z,5.41
2018-03-23T19:45:28.214Z,5.48
2018-03-23T19:47:55.995Z,5.40
2018-03-23T19:50:23.872Z,5.34
2018-03-23T19:52:51.720Z,5.20
2018-03-23T19:55:19.490Z,5.26
2018-03-23T19:57:47.206Z,5.28
2018-03-23T20:00:14.884Z,5.30
2018-03-23T20:02:42.706Z,5.24
2018-03-23T20:05:10.543Z,5.24
2018-03-23T20:07:38.218Z,5.16
2018-03-23T20:10:06.061Z,5.26
2018-03-23T20:12:33.979Z,5.18
2018-03-23T20:15:01.756Z,5.15
2018-03-23T20:17:35.066Z,5.08
2018-03-23T20:20:03.764Z,5.06
2018-03-23T20:22:31.754Z,5.11
2018-03-23T20:24:59.530Z,5.11
2018-03-23T20:27:32.938Z,5.22
2018-03-23T20:30:00.671Z,5.10
2018-03-23T20:32:32.398Z,5.05
2018-03-23T20:35:00.048Z,5.07
2018-03-23T20:37:27.834Z,5.02
2018-03-23T20:39:55.718Z,5.03
2018-03-23T20:42:23.414Z,5.14
2018-03-23T20:44:51.582Z,5.03
2018-03-23T20:47:19.239Z,5.06
2018-03-23T20:49:47.038Z,4.99
2018-03-23T20:52:15.226Z,5.10
2018-03-23T20:54:42.993Z,5.10
2018-03-23T20:57:10.787Z,5.07
2018-03-23T20:59:38.657Z,5.01
2018-03-23T21:02:06.748Z,5.08
2018-03-23T21:04:34.420Z,5.25
2018-03-23T21:07:02.143Z,5.06
2018-03-23T21:09:29.870Z,5.18
2018-03-23T21:11:57.649Z,5.14
2018-03-23T21:14:25.537Z,5.16
2018-03-23T21:16:53.258Z,5.06
2018-03-23T21:19:21.092Z,5.07
2018-03-23T21:21:48.866Z,4.98
2018-03-23T21:24:16.655Z,5.03
2018-03-23T21:26:44.420Z,5.16
2018-03-23T21:29:12.168Z,5.14
2018-03-23T21:31:39.977Z,5.17
2018-03-23T21:34:07.882Z,5.13
2018-03-23T21:36:36.045Z,5.08
2018-03-23T21:39:03.896Z,5.01
2018-03-23T21:41:31.595Z,5.12
2018-03-23T21:43:59.477Z,5.14
2018-03-23T21:46:27.230Z,5.13
2018-03-23T21:48:54.931Z,5.06
2018-03-23T21:51:22.605Z,5.18
2018-03-23T21:53:50.363Z,5.28
2018-03-23T21:56:18.369Z,5.18
2018-03-23T21:58:46.144Z,5.15
2018-03-23T22:01:13.924Z,5.03
2018-03-23T22:03:41.705Z,5.14
2018-03-23T22:06:09.476Z,5.21
2018-03-23T22:08:37.137Z,5.28
2018-03-23T22:11:04.894Z,5.18
2018-03-23T22:13:32.712Z,5.15
2018-03-23T22:16:00.591Z,5.07
2018-03-23T22:18:28.261Z,5.19
2018-03-23T22:20:56.042Z,5.07
2018-03-23T22:23:23.822Z,5.00
2018-03-23T22:25:51.500Z,5.05
2018-03-23T22:28:19.275Z,5.00
2018-03-23T22:30:47.005Z,5.01
2018-03-23T22:33:14.720Z,5.04
2018-03-23T22:35:42.389Z,5.06
2018-03-23T22:38:10.066Z,5.19
2018-03-23T22:40:38.267Z,5.17
2018-03-23T22:43:05.936Z,5.11
2018-03-23T22:45:33.721Z,5.23
2018-03-23T22:48:01.497Z,5.16
2018-03-23T22:50:29.174Z,5.18
2018-03-23T22:52:56.842Z,5.11
2018-03-23T22:55:24.525Z,5.03
2018-03-23T22:57:52.286Z,5.02
2018-03-23T23:00:19.970Z,5.12
2018-03-23T23:02:47.719Z,5.05
2018-03-23T23:05:15.535Z,5.08
2018-03-23T23:07:43.312Z,5.11
2018-03-23T23:10:10.987Z,5.09
2018-03-23T23:12:38.867Z,5.13
2018-03-23T23:15:06.646Z,5.07
2018-03-23T23:17:34.424Z,5.01
2018-03-23T23:20:02.203Z,5.06
2018-03-23T23:22:30.083Z,5.07
2018-03-23T23:24:57.860Z,5.03
2018-03-23T23:27:25.643Z,5.11
2018-03-23T23:29:53.929Z,5.07
2018-03-23T23:32:21.600Z,5.04
2018-03-23T23:34:49.278Z,5.07
2018-03-23T23:37:17.056Z,5.12
2018-03-23T23:39:44.792Z,5.20
2018-03-23T23:42:12.505Z,5.12
2018-03-23T23:44:40.389Z,5.17
2018-03-23T23:47:08.165Z,5.15
2018-03-23T23:49:35.908Z,5.11
2018-03-23T23:52:03.611Z,5.16
2018-03-23T23:54:31.399Z,5.18
2018-03-23T23:56:59.161Z,5.12
2018-03-23T23:59:26.900Z,5.07
